createdAt,value
2022-10-18T00:01:04.441Z,12.55
2022-10-18T00:03:50.241Z,14.43
2022-10-18T00:06:37.678Z,14.10
2022-10-18T00:09:25.309Z,13.98
2022-10-18T00:12:10.836Z,13.05
2022-10-18T00:14:56.505Z,14.23
2022-10-18T00:17:42.130Z,14.65
2022-10-18T00:20:28.148Z,13.13
2022-10-18T00:23:13.859Z,13.50
2022-10-18T00:26:09.899Z,13.15
2022-10-18T00:28:58.296Z,13.00
2022-10-18T00:31:44.685Z,12.88
2022-10-18T00:34:30.053Z,15.63
2022-10-18T00:37:15.675Z,14.40
2022-10-18T00:40:01.684Z,15.40
2022-10-18T00:42:47.465Z,14.38
2022-10-18T00:45:32.881Z,15.45
2022-10-18T00:48:19.817Z,14.07
2022-10-18T00:51:05.580Z,15.27
2022-10-18T00:53:51.797Z,16.35
2022-10-18T00:56:37.801Z,14.25
2022-10-18T00:59:24.299Z,14.55
2022-10-18T01:02:10.713Z,14.07
2022-10-18T01:04:56.107Z,15.27
2022-10-18T01:08:09.527Z,15.95
2022-10-18T01:11:07.399Z,15.00
2022-10-18T01:14:09.523Z,15.60
2022-10-18T01:17:13.230Z,13.88
2022-10-18T01:20:03.745Z,14.15
2022-10-18T01:23:00.325Z,13.98
2022-10-18T01:26:22.749Z,14.63
2022-10-18T01:29:42.608Z,14.82
2022-10-18T01:32:37.084Z,14.73
2022-10-18T01:35:29.867Z,16.98
2022-10-18T01:38:18.013Z,15.07
2022-10-18T01:41:05.363Z,15.60
2022-10-18T01:43:59.268Z,14.63
2022-10-18T01:46:46.591Z,14.27
2022-10-18T01:49:33.416Z,16.15
2022-10-18T01:52:19.022Z,15.15
2022-10-18T01:55:05.272Z,14.98
2022-10-18T01:58:25.159Z,14.85
2022-10-18T02:01:31.366Z,15.18
2022-10-18T02:04:39.096Z,15.35
2022-10-18T02:07:33.709Z,13.00
2022-10-18T02:10:31.875Z,16.40
2022-10-18T02:13:22.068Z,14.45
2022-10-18T02:16:27.917Z,15.18
2022-10-18T02:19:21.117Z,16.02
2022-10-18T02:22:08.841Z,15.45
2022-10-18T02:24:57.608Z,16.67
2022-10-18T02:27:43.125Z,17.60
2022-10-18T02:30:56.831Z,18.25
2022-10-18T02:33:54.040Z,17.77
2022-10-18T02:36:57.425Z,16.67
2022-10-18T02:39:47.236Z,15.95
2022-10-18T02:42:38.004Z,17.58
2022-10-18T02:45:24.932Z,15.23
2022-10-18T02:48:10.517Z,18.13
2022-10-18T02:50:56.110Z,15.68
2022-10-18T02:53:41.773Z,16.67
2022-10-18T02:56:27.582Z,16.20
2022-10-18T02:59:13.190Z,16.15
2022-10-18T03:01:58.899Z,15.52
2022-10-18T03:04:44.282Z,15.45
2022-10-18T03:07:29.991Z,16.95
2022-10-18T03:10:15.872Z,17.38
2022-10-18T03:13:01.328Z,16.27
2022-10-18T03:15:48.036Z,17.58
2022-10-18T03:18:33.780Z,16.88
2022-10-18T03:21:19.216Z,17.23
2022-10-18T03:24:05.245Z,17.08
2022-10-18T03:26:50.740Z,17.23
2022-10-18T03:29:36.251Z,16.70
2022-10-18T03:32:21.858Z,16.35
2022-10-18T03:35:09.155Z,18.25
2022-10-18T03:37:54.827Z,17.60
2022-10-18T03:40:40.428Z,18.80
2022-10-18T03:43:26.055Z,16.02
2022-10-18T03:46:12.288Z,17.33
2022-10-18T03:48:57.639Z,15.40
2022-10-18T03:51:43.111Z,17.17
2022-10-18T03:54:28.768Z,16.52
2022-10-18T03:57:14.268Z,17.17
2022-10-18T03:59:59.792Z,16.30
2022-10-18T04:02:45.247Z,16.15
2022-10-18T04:05:31.451Z,15.27
2022-10-18T04:08:18.338Z,14.82
2022-10-18T04:11:08.525Z,15.73
2022-10-18T04:13:54.281Z,15.18
2022-10-18T04:16:40.102Z,14.63
2022-10-18T04:19:25.557Z,15.23
2022-10-18T04:22:12.239Z,15.25
2022-10-18T04:24:58.180Z,16.33
2022-10-18T04:27:44.705Z,13.50
2022-10-18T04:30:30.439Z,15.05
2022-10-18T04:33:16.431Z,15.10
2022-10-18T04:36:02.657Z,13.45
2022-10-18T04:38:48.175Z,13.73
2022-10-18T04:41:33.628Z,13.90
2022-10-18T04:44:19.108Z,14.38
2022-10-18T04:47:04.879Z,13.45
2022-10-18T04:49:50.419Z,14.57
2022-10-18T04:52:36.075Z,11.95
2022-10-18T04:55:21.488Z,13.82
2022-10-18T04:58:07.198Z,14.65
2022-10-18T05:00:52.961Z,16.23
2022-10-18T05:03:38.664Z,16.70
2022-10-18T05:06:24.100Z,15.98
2022-10-18T05:09:09.748Z,13.40
2022-10-18T05:11:55.350Z,18.40
2022-10-18T05:14:40.857Z,14.30
2022-10-18T05:17:26.386Z,17.90
2022-10-18T05:20:12.115Z,15.75
2022-10-18T05:22:58.544Z,15.55
2022-10-18T05:25:44.500Z,16.55
2022-10-18T05:28:45.896Z,14.98
2022-10-18T05:31:31.567Z,15.90
2022-10-18T05:34:17.652Z,14.18
2022-10-18T05:37:03.473Z,14.38
2022-10-18T05:39:49.248Z,15.20
2022-10-18T05:42:34.911Z,15.07
2022-10-18T05:45:20.409Z,14.00
2022-10-18T05:48:07.609Z,14.50
2022-10-18T05:50:53.508Z,15.13
2022-10-18T05:53:39.039Z,15.70
2022-10-18T05:56:24.907Z,14.20
2022-10-18T05:59:12.320Z,16.45
2022-10-18T06:01:57.951Z,15.50
2022-10-18T06:04:43.461Z,15.18
2022-10-18T06:07:29.173Z,14.88
2022-10-18T06:10:15.088Z,16.20
2022-10-18T06:13:00.633Z,15.13
2022-10-18T06:15:46.108Z,15.63
2022-10-18T06:18:31.537Z,14.15
2022-10-18T06:21:17.846Z,15.20
2022-10-18T06:24:03.865Z,15.02
2022-10-18T06:26:50.050Z,15.07
2022-10-18T06:29:39.872Z,15.55
2022-10-18T06:32:25.388Z,15.52
2022-10-18T06:35:11.065Z,14.65
2022-10-18T06:37:57.578Z,14.45
2022-10-18T06:40:43.436Z,14.77
2022-10-18T06:43:29.095Z,12.85
2022-10-18T06:46:14.648Z,12.70
2022-10-18T06:49:00.157Z,12.82
2022-10-18T06:51:46.194Z,12.30
2022-10-18T06:54:31.970Z,13.23
2022-10-18T06:57:17.544Z,12.52
2022-10-18T07:00:04.275Z,13.65
2022-10-18T07:02:49.776Z,12.38
2022-10-18T07:05:35.226Z,12.20
2022-10-18T07:08:20.617Z,12.40
2022-10-18T07:11:07.890Z,11.45
2022-10-18T07:14:00.914Z,11.93
2022-10-18T07:16:46.427Z,10.98
2022-10-18T07:19:32.189Z,11.13
2022-10-18T07:22:17.654Z,10.95
2022-10-18T07:25:03.172Z,10.40
2022-10-18T07:27:48.941Z,11.32
2022-10-18T07:30:34.284Z,10.45
2022-10-18T07:33:20.792Z,11.05
2022-10-18T07:36:08.180Z,11.00
2022-10-18T07:38:53.969Z,10.10
2022-10-18T07:41:39.915Z,11.13
2022-10-18T07:44:26.013Z,10.70
2022-10-18T07:47:11.611Z,10.90
2022-10-18T07:49:57.095Z,10.05
2022-10-18T07:52:42.517Z,10.00
2022-10-18T07:55:28.044Z,10.55
2022-10-18T07:58:13.584Z,11.10
2022-10-18T08:01:03.498Z,10.95
2022-10-18T08:03:49.463Z,11.52
2022-10-18T08:06:35.104Z,11.25
2022-10-18T08:09:20.567Z,9.48
2022-10-18T08:12:06.254Z,10.30
2022-10-18T08:14:51.609Z,10.63
2022-10-18T08:17:37.167Z,10.48
2022-10-18T08:20:31.221Z,10.63
2022-10-18T08:23:16.902Z,11.18
2022-10-18T08:26:12.745Z,10.85
2022-10-18T08:29:10.675Z,9.75
2022-10-18T08:32:03.626Z,9.25
2022-10-18T08:34:49.440Z,10.45
2022-10-18T08:37:35.089Z,10.88
2022-10-18T08:40:20.872Z,9.77
2022-10-18T08:43:21.803Z,10.45
2022-10-18T08:46:12.337Z,10.02
2022-10-18T08:48:59.275Z,11.27
2022-10-18T08:51:48.821Z,9.40
2022-10-18T08:54:49.973Z,8.48
2022-10-18T08:57:35.824Z,10.10
2022-10-18T09:00:24.621Z,8.93
2022-10-18T09:03:16.958Z,7.15
2022-10-18T09:06:23.566Z,7.93
2022-10-18T09:09:37.353Z,9.48
2022-10-18T09:12:44.833Z,8.10
2022-10-18T09:15:49.512Z,7.28
2022-10-18T09:19:13.645Z,7.20
2022-10-18T09:22:08.970Z,5.97
2022-10-18T09:25:41.180Z,6.00
2022-10-18T09:29:05.147Z,7.25
2022-10-18T09:31:56.664Z,6.32
2022-10-18T09:35:22.755Z,6.55
2022-10-18T09:38:13.171Z,7.65
2022-10-18T09:41:15.333Z,6.40
2022-10-18T09:44:06.907Z,6.75
2022-10-18T09:47:01.827Z,7.90
2022-10-18T09:50:19.344Z,8.25
2022-10-18T09:53:13.150Z,6.95
2022-10-18T09:56:17.338Z,9.05
2022-10-18T09:59:03.844Z,8.20
2022-10-18T10:01:49.412Z,8.23
2022-10-18T10:04:35.004Z,7.82
2022-10-18T10:07:28.706Z,8.02
2022-10-18T10:10:21.782Z,8.93
2022-10-18T10:13:15.558Z,7.75
2022-10-18T10:16:03.105Z,10.07
2022-10-18T10:18:54.272Z,8.25
2022-10-18T10:21:40.486Z,7.38
2022-10-18T10:24:49.445Z,6.90
2022-10-18T10:27:43.465Z,8.60
2022-10-18T10:30:31.039Z,7.05
2022-10-18T10:33:37.648Z,7.20
2022-10-18T10:36:23.125Z,7.72
2022-10-18T10:39:18.844Z,7.18
2022-10-18T10:42:06.846Z,8.73
2022-10-18T10:44:55.707Z,7.30
2022-10-18T10:47:41.539Z,7.65
2022-10-18T10:50:29.470Z,9.27
2022-10-18T10:53:43.617Z,8.48
2022-10-18T10:56:36.517Z,8.63
2022-10-18T10:59:24.752Z,9.38
2022-10-18T11:02:17.674Z,7.57
2022-10-18T11:05:27.214Z,7.13
2022-10-18T11:08:19.403Z,7.05
2022-10-18T11:11:30.983Z,6.80
2022-10-18T11:14:26.203Z,7.90
2022-10-18T11:17:35.818Z,8.68
2022-10-18T11:20:27.768Z,6.72
2022-10-18T11:23:18.112Z,7.05
2022-10-18T11:26:12.813Z,5.50
2022-10-18T11:29:17.812Z,5.80
2022-10-18T11:32:19.036Z,6.90
2022-10-18T11:35:26.416Z,6.63
2022-10-18T11:38:24.290Z,5.55
2022-10-18T11:41:43.449Z,5.35
2022-10-18T11:44:43.445Z,6.65
2022-10-18T11:47:37.803Z,5.97
2022-10-18T11:50:40.771Z,5.22
2022-10-18T11:53:53.378Z,5.15
2022-10-18T11:56:56.601Z,5.07
2022-10-18T12:00:08.615Z,5.20
2022-10-18T12:03:32.915Z,4.78
2022-10-18T12:06:23.701Z,5.13
2022-10-18T12:09:31.260Z,5.00
2022-10-18T12:12:33.766Z,4.75
2022-10-18T12:15:23.345Z,5.03
2022-10-18T12:18:16.355Z,4.47
2022-10-18T12:21:03.063Z,4.20
2022-10-18T12:24:16.084Z,4.60
2022-10-18T12:27:02.344Z,4.18
2022-10-18T12:29:55.417Z,4.28
2022-10-18T12:32:56.277Z,4.38
2022-10-18T12:36:10.416Z,3.85
2022-10-18T12:39:29.106Z,4.65
2022-10-18T12:42:28.718Z,3.80
2022-10-18T12:45:28.045Z,3.85
2022-10-18T12:48:38.787Z,3.80
2022-10-18T12:51:24.520Z,4.40
2022-10-18T12:54:12.909Z,3.47
2022-10-18T12:57:01.528Z,3.50
2022-10-18T12:59:47.129Z,3.67
2022-10-18T13:02:32.989Z,3.75
2022-10-18T13:05:53.341Z,3.30
2022-10-18T13:08:43.632Z,3.45
2022-10-18T13:11:33.236Z,3.28
2022-10-18T13:14:35.571Z,3.00
2022-10-18T13:17:30.285Z,3.15
2022-10-18T13:20:44.109Z,2.88
2022-10-18T13:23:47.869Z,3.17
2022-10-18T13:26:36.596Z,3.13
2022-10-18T13:29:24.841Z,3.08
2022-10-18T13:32:28.552Z,3.30
2022-10-18T13:35:55.504Z,3.10
2022-10-18T13:39:02.508Z,3.10
2022-10-18T13:41:48.089Z,2.35
2022-10-18T13:44:40.084Z,2.33
2022-10-18T13:47:38.195Z,2.97
2022-10-18T13:50:38.207Z,2.90
2022-10-18T13:53:41.116Z,3.00
2022-10-18T13:57:03.521Z,2.55
2022-10-18T13:59:49.231Z,2.63
2022-10-18T14:02:57.567Z,3.13
2022-10-18T14:06:06.602Z,2.80
2022-10-18T14:09:26.219Z,2.60
2022-10-18T14:12:47.702Z,2.70
2022-10-18T14:15:39.371Z,2.38
2022-10-18T14:18:32.901Z,2.63
2022-10-18T14:21:27.416Z,2.60
2022-10-18T14:24:24.318Z,2.60
2022-10-18T14:27:14.747Z,1.95
2022-10-18T14:30:15.952Z,2.53
2022-10-18T14:33:02.008Z,2.53
2022-10-18T14:36:03.542Z,2.47
2022-10-18T14:38:59.341Z,2.75
2022-10-18T14:41:53.576Z,2.33
2022-10-18T14:44:39.054Z,2.20
2022-10-18T14:47:27.181Z,1.95
2022-10-18T14:50:31.180Z,2.22
2022-10-18T14:53:22.104Z,2.50
2022-10-18T14:56:08.399Z,2.30
2022-10-18T14:58:55.956Z,2.40
2022-10-18T15:01:58.595Z,1.98
2022-10-18T15:04:45.916Z,2.20
2022-10-18T15:07:32.461Z,1.88
2022-10-18T15:10:23.785Z,2.40
2022-10-18T15:13:13.045Z,1.73
2022-10-18T15:15:59.805Z,1.92
2022-10-18T15:19:22.622Z,2.05
2022-10-18T15:25:21.067Z,1.67
2022-10-18T15:28:06.630Z,2.10
2022-10-18T15:30:52.255Z,1.90
2022-10-18T15:33:37.997Z,1.90
2022-10-18T15:36:31.119Z,1.67
2022-10-18T15:39:21.336Z,2.03
2022-10-18T15:42:27.142Z,1.98
2022-10-18T15:45:25.161Z,1.63
2022-10-18T15:48:28.137Z,2.10
2022-10-18T15:51:47.851Z,1.60
2022-10-18T15:54:33.485Z,1.50
2022-10-18T15:57:19.202Z,1.90
2022-10-18T16:00:07.988Z,1.67
2022-10-18T16:02:59.427Z,1.40
2022-10-18T16:05:45.277Z,1.75
2022-10-18T16:08:32.312Z,2.38
2022-10-18T16:11:23.322Z,11.45
2022-10-18T16:14:09.125Z,41.63
2022-10-18T16:17:02.823Z,55.63
2022-10-18T16:19:48.381Z,56.72
2022-10-18T16:22:36.285Z,44.20
2022-10-18T16:25:22.770Z,40.72
2022-10-18T16:28:13.900Z,41.42
2022-10-18T16:31:01.815Z,29.65
2022-10-18T16:33:48.605Z,39.03
2022-10-18T16:36:34.337Z,38.83
2022-10-18T16:39:21.685Z,29.48
2022-10-18T16:42:07.341Z,29.55
2022-10-18T16:44:54.939Z,26.15
2022-10-18T16:47:40.485Z,21.00
2022-10-18T16:50:25.947Z,19.65
2022-10-18T16:53:11.842Z,22.10
2022-10-18T16:56:00.909Z,17.58
2022-10-18T16:58:47.644Z,22.48
2022-10-18T17:01:33.095Z,22.40
2022-10-18T17:04:18.590Z,17.95
2022-10-18T17:07:05.008Z,17.83
2022-10-18T17:09:50.421Z,12.45
2022-10-18T17:12:35.979Z,14.32
2022-10-18T17:15:21.808Z,16.90
2022-10-18T17:18:14.225Z,15.55
2022-10-18T17:21:03.448Z,14.02
2022-10-18T17:23:49.532Z,12.82
2022-10-18T17:26:35.285Z,12.15
2022-10-18T17:29:20.813Z,11.27
2022-10-18T17:32:06.717Z,12.73
2022-10-18T17:34:52.422Z,11.05
2022-10-18T17:37:43.912Z,11.70
2022-10-18T17:40:32.574Z,8.98
2022-10-18T17:43:18.326Z,9.52
2022-10-18T17:46:04.533Z,9.48
2022-10-18T17:48:50.101Z,7.75
2022-10-18T17:51:36.692Z,8.20
2022-10-18T17:54:22.149Z,7.93
2022-10-18T17:57:07.720Z,6.80
2022-10-18T17:59:55.297Z,7.18
2022-10-18T18:02:42.034Z,5.70
2022-10-18T18:05:33.611Z,6.30
2022-10-18T18:08:19.181Z,5.90
2022-10-18T18:11:06.602Z,6.25
2022-10-18T18:13:55.934Z,5.10
2022-10-18T18:16:44.120Z,5.97
2022-10-18T18:19:30.277Z,5.88
2022-10-18T18:22:16.121Z,5.63
2022-10-18T18:25:01.789Z,4.05
2022-10-18T18:27:47.139Z,5.47
2022-10-18T18:30:32.572Z,4.90
2022-10-18T18:33:19.709Z,5.30
2022-10-18T18:36:06.998Z,4.10
2022-10-18T18:38:56.836Z,4.57
2022-10-18T18:41:43.533Z,5.28
2022-10-18T18:44:29.587Z,3.80
2022-10-18T18:47:15.538Z,4.80
2022-10-18T18:50:02.235Z,3.80
2022-10-18T18:52:47.552Z,3.80
2022-10-18T18:55:34.590Z,3.40
2022-10-18T18:58:20.206Z,3.55
2022-10-18T19:01:11.644Z,3.90
2022-10-18T19:03:58.917Z,3.40
2022-10-18T19:06:46.546Z,3.17
2022-10-18T19:09:32.783Z,3.17
2022-10-18T19:12:20.629Z,4.30
2022-10-18T19:15:07.848Z,4.80
2022-10-18T19:17:54.772Z,4.07
2022-10-18T19:20:40.170Z,4.47
2022-10-18T19:26:27.247Z,3.40
2022-10-18T19:29:23.803Z,3.30
2022-10-18T19:32:12.157Z,3.10
2022-10-18T19:34:57.809Z,2.67
2022-10-18T19:37:43.308Z,3.10
2022-10-18T19:40:28.727Z,2.28
2022-10-18T19:43:14.296Z,2.55
2022-10-18T19:46:03.219Z,2.90
2022-10-18T19:48:49.172Z,2.70
2022-10-18T19:51:35.342Z,2.22
2022-10-18T19:54:21.231Z,2.30
2022-10-18T19:57:07.032Z,2.50
2022-10-18T19:59:53.272Z,1.92
2022-10-18T20:02:39.371Z,2.20
2022-10-18T20:05:24.929Z,2.50
2022-10-18T20:08:10.605Z,2.47
2022-10-18T20:10:57.900Z,2.03
2022-10-18T20:13:43.772Z,2.40
2022-10-18T20:16:31.321Z,2.05
2022-10-18T20:19:16.902Z,1.85
2022-10-18T20:22:02.471Z,2.30
2022-10-18T20:24:47.966Z,1.80
2022-10-18T20:27:34.100Z,2.05
2022-10-18T20:30:20.402Z,1.95
2022-10-18T20:33:05.993Z,2.00
2022-10-18T20:35:52.344Z,1.90
2022-10-18T20:38:40.417Z,1.70
2022-10-18T20:41:34.778Z,2.42
2022-10-18T20:44:22.459Z,2.15
2022-10-18T20:47:08.152Z,1.58
2022-10-18T20:49:53.606Z,2.38
2022-10-18T20:52:39.118Z,1.77
2022-10-18T20:55:24.649Z,1.80
2022-10-18T20:58:11.208Z,2.03
2022-10-18T21:01:03.961Z,1.85
2022-10-18T21:03:51.406Z,1.52
2022-10-18T21:06:40.963Z,1.77
2022-10-18T21:09:26.573Z,1.63
2022-10-18T21:12:12.332Z,2.10
2022-10-18T21:14:57.752Z,1.55
2022-10-18T21:17:43.294Z,1.70
2022-10-18T21:20:30.661Z,1.52
2022-10-18T21:23:16.001Z,1.77
2022-10-18T21:26:01.471Z,1.50
2022-10-18T21:28:49.926Z,1.50
2022-10-18T21:31:39.186Z,1.70
2022-10-18T21:34:24.871Z,1.65
2022-10-18T21:37:10.226Z,1.67
2022-10-18T21:39:55.943Z,1.30
2022-10-18T21:42:41.750Z,1.80
2022-10-18T21:45:27.348Z,1.50
2022-10-18T21:48:13.113Z,1.65
2022-10-18T21:51:05.421Z,1.67
2022-10-18T21:53:52.525Z,1.73
2022-10-18T21:56:38.091Z,2.10
2022-10-18T21:59:23.693Z,1.50
2022-10-18T22:02:09.189Z,1.25
2022-10-18T22:04:54.824Z,1.30
2022-10-18T22:07:40.350Z,1.40
2022-10-18T22:10:25.744Z,1.30
2022-10-18T22:13:11.609Z,1.23
2022-10-18T22:16:04.285Z,1.83
2022-10-18T22:18:50.416Z,1.80
2022-10-18T22:21:36.267Z,1.73
2022-10-18T22:24:21.836Z,1.33
2022-10-18T22:27:07.201Z,1.45
2022-10-18T22:29:53.471Z,1.65
2022-10-18T22:32:41.085Z,1.88
2022-10-18T22:35:26.790Z,1.48
2022-10-18T22:38:12.437Z,1.27
2022-10-18T22:40:57.965Z,2.03
2022-10-18T22:43:43.686Z,1.50
2022-10-18T22:46:29.813Z,1.50
2022-10-18T22:49:15.591Z,1.50
2022-10-18T22:52:00.984Z,1.30
2022-10-18T22:54:46.492Z,1.20
2022-10-18T22:57:31.928Z,1.40
2022-10-18T23:00:17.376Z,1.60
2022-10-18T23:03:02.861Z,1.67
2022-10-18T23:05:48.453Z,1.55
2022-10-18T23:08:33.874Z,1.58
2022-10-18T23:11:19.706Z,1.80
2022-10-18T23:14:07.011Z,1.58
2022-10-18T23:16:52.543Z,1.40
2022-10-18T23:19:37.931Z,1.90
2022-10-18T23:22:23.425Z,1.83
2022-10-18T23:25:09.233Z,1.60
2022-10-18T23:27:54.912Z,1.85
2022-10-18T23:30:40.485Z,1.52
2022-10-18T23:33:26.084Z,1.65
2022-10-18T23:36:11.941Z,1.40
2022-10-18T23:38:58.355Z,1.75
2022-10-18T23:41:44.273Z,1.92
2022-10-18T23:44:29.861Z,1.58
2022-10-18T23:47:16.084Z,1.58
2022-10-18T23:50:01.567Z,1.77
2022-10-18T23:52:47.036Z,1.90
2022-10-18T23:55:32.509Z,1.80
2022-10-18T23:58:18.105Z,1.55
